sensor_id;sensor_type;location;lat;lon;timestamp;temperature;humidity
65231;DHT22;51813;40.666;16.602;2023-12-20T00:01:22;16.00;53.40
65231;DHT22;51813;40.666;16.602;2023-12-20T00:03:48;15.90;53.40
65231;DHT22;51813;40.666;16.602;2023-12-20T00:06:14;15.90;53.40
65231;DHT22;51813;40.666;16.602;2023-12-20T00:08:39;15.90;53.40
65231;DHT22;51813;40.666;16.602;2023-12-20T00:11:05;15.90;53.40
65231;DHT22;51813;40.666;16.602;2023-12-20T00:13:31;15.90;53.60
65231;DHT22;51813;40.666;16.602;2023-12-20T00:15:56;15.90;53.60
65231;DHT22;51813;40.666;16.602;2023-12-20T00:18:23;15.90;53.20
65231;DHT22;51813;40.666;16.602;2023-12-20T00:20:48;16.00;53.30
65231;DHT22;51813;40.666;16.602;2023-12-20T00:23:14;15.90;53.30
65231;DHT22;51813;40.666;16.602;2023-12-20T00:25:40;15.90;53.20
65231;DHT22;51813;40.666;16.602;2023-12-20T00:28:06;15.90;53.40
65231;DHT22;51813;40.666;16.602;2023-12-20T00:30:32;15.90;53.30
65231;DHT22;51813;40.666;16.602;2023-12-20T00:32:57;15.90;53.30
65231;DHT22;51813;40.666;16.602;2023-12-20T00:35:23;15.90;53.30
65231;DHT22;51813;40.666;16.602;2023-12-20T00:37:49;15.90;53.30
65231;DHT22;51813;40.666;16.602;2023-12-20T00:40:15;15.90;53.30
65231;DHT22;51813;40.666;16.602;2023-12-20T00:42:41;15.90;53.10
65231;DHT22;51813;40.666;16.602;2023-12-20T00:45:07;15.90;53.20
65231;DHT22;51813;40.666;16.602;2023-12-20T00:47:33;15.90;53.10
65231;DHT22;51813;40.666;16.602;2023-12-20T00:49:59;15.90;53.10
65231;DHT22;51813;40.666;16.602;2023-12-20T00:52:24;15.90;53.30
65231;DHT22;51813;40.666;16.602;2023-12-20T00:54:51;15.90;53.60
65231;DHT22;51813;40.666;16.602;2023-12-20T00:57:17;15.90;53.20
65231;DHT22;51813;40.666;16.602;2023-12-20T00:59:43;15.90;53.20
65231;DHT22;51813;40.666;16.602;2023-12-20T01:02:08;15.90;53.30
65231;DHT22;51813;40.666;16.602;2023-12-20T01:04:35;15.90;53.10
65231;DHT22;51813;40.666;16.602;2023-12-20T01:07:01;15.90;53.00
65231;DHT22;51813;40.666;16.602;2023-12-20T01:09:26;15.80;53.00
65231;DHT22;51813;40.666;16.602;2023-12-20T01:11:53;15.90;53.10
65231;DHT22;51813;40.666;16.602;2023-12-20T01:14:18;15.90;53.10
65231;DHT22;51813;40.666;16.602;2023-12-20T01:16:44;15.90;53.20
65231;DHT22;51813;40.666;16.602;2023-12-20T01:19:10;15.90;53.10
65231;DHT22;51813;40.666;16.602;2023-12-20T01:21:36;15.90;53.20
65231;DHT22;51813;40.666;16.602;2023-12-20T01:24:01;15.90;53.20
65231;DHT22;51813;40.666;16.602;2023-12-20T01:26:27;15.90;53.20
65231;DHT22;51813;40.666;16.602;2023-12-20T01:28:53;15.90;53.20
65231;DHT22;51813;40.666;16.602;2023-12-20T01:31:19;15.90;53.20
65231;DHT22;51813;40.666;16.602;2023-12-20T01:33:44;15.90;53.40
65231;DHT22;51813;40.666;16.602;2023-12-20T01:36:10;15.90;53.40
65231;DHT22;51813;40.666;16.602;2023-12-20T01:38:37;15.90;53.30
65231;DHT22;51813;40.666;16.602;2023-12-20T01:41:02;15.90;53.40
65231;DHT22;51813;40.666;16.602;2023-12-20T01:43:29;15.90;53.20
65231;DHT22;51813;40.666;16.602;2023-12-20T01:45:56;15.90;53.30
65231;DHT22;51813;40.666;16.602;2023-12-20T01:48:24;15.80;53.20
65231;DHT22;51813;40.666;16.602;2023-12-20T01:50:50;15.80;53.40
65231;DHT22;51813;40.666;16.602;2023-12-20T01:53:17;15.80;53.40
65231;DHT22;51813;40.666;16.602;2023-12-20T01:55:44;15.80;53.40
65231;DHT22;51813;40.666;16.602;2023-12-20T01:58:12;15.80;53.40
65231;DHT22;51813;40.666;16.602;2023-12-20T02:00:38;15.80;53.40
65231;DHT22;51813;40.666;16.602;2023-12-20T02:03:04;15.90;53.40
65231;DHT22;51813;40.666;16.602;2023-12-20T02:05:30;15.80;53.30
65231;DHT22;51813;40.666;16.602;2023-12-20T02:07:56;15.90;53.50
65231;DHT22;51813;40.666;16.602;2023-12-20T02:10:23;15.90;53.50
65231;DHT22;51813;40.666;16.602;2023-12-20T02:12:48;15.90;53.70
65231;DHT22;51813;40.666;16.602;2023-12-20T02:15:14;15.90;54.00
65231;DHT22;51813;40.666;16.602;2023-12-20T02:17:40;15.90;53.60
65231;DHT22;51813;40.666;16.602;2023-12-20T02:20:06;15.90;53.70
65231;DHT22;51813;40.666;16.602;2023-12-20T02:22:32;15.90;53.80
65231;DHT22;51813;40.666;16.602;2023-12-20T02:24:58;15.90;53.70
65231;DHT22;51813;40.666;16.602;2023-12-20T02:27:24;15.80;53.70
65231;DHT22;51813;40.666;16.602;2023-12-20T02:29:50;15.80;53.70
65231;DHT22;51813;40.666;16.602;2023-12-20T02:32:17;15.80;53.80
65231;DHT22;51813;40.666;16.602;2023-12-20T02:34:44;15.80;53.70
65231;DHT22;51813;40.666;16.602;2023-12-20T02:37:09;15.80;53.70
65231;DHT22;51813;40.666;16.602;2023-12-20T02:39:35;15.80;53.80
65231;DHT22;51813;40.666;16.602;2023-12-20T02:42:01;15.90;53.70
65231;DHT22;51813;40.666;16.602;2023-12-20T02:44:26;15.80;54.00
65231;DHT22;51813;40.666;16.602;2023-12-20T02:46:52;15.80;53.90
65231;DHT22;51813;40.666;16.602;2023-12-20T02:49:18;15.80;53.80
65231;DHT22;51813;40.666;16.602;2023-12-20T02:51:43;15.80;54.10
65231;DHT22;51813;40.666;16.602;2023-12-20T02:54:09;15.80;54.10
65231;DHT22;51813;40.666;16.602;2023-12-20T02:56:35;15.90;54.10
65231;DHT22;51813;40.666;16.602;2023-12-20T02:59:01;15.90;54.00
65231;DHT22;51813;40.666;16.602;2023-12-20T03:01:27;15.90;54.00
65231;DHT22;51813;40.666;16.602;2023-12-20T03:03:53;15.90;54.00
65231;DHT22;51813;40.666;16.602;2023-12-20T03:06:19;15.80;54.00
65231;DHT22;51813;40.666;16.602;2023-12-20T03:08:45;15.80;54.10
65231;DHT22;51813;40.666;16.602;2023-12-20T03:11:11;15.80;54.10
65231;DHT22;51813;40.666;16.602;2023-12-20T03:13:36;15.80;54.00
65231;DHT22;51813;40.666;16.602;2023-12-20T03:16:08;15.80;54.10
65231;DHT22;51813;40.666;16.602;2023-12-20T03:18:34;15.80;54.80
65231;DHT22;51813;40.666;16.602;2023-12-20T03:20:59;15.80;54.10
65231;DHT22;51813;40.666;16.602;2023-12-20T03:23:25;15.80;54.10
65231;DHT22;51813;40.666;16.602;2023-12-20T03:25:52;15.80;54.10
65231;DHT22;51813;40.666;16.602;2023-12-20T03:28:18;15.80;54.10
65231;DHT22;51813;40.666;16.602;2023-12-20T03:30:44;15.80;54.30
65231;DHT22;51813;40.666;16.602;2023-12-20T03:33:10;15.90;54.50
65231;DHT22;51813;40.666;16.602;2023-12-20T03:35:36;15.80;54.30
65231;DHT22;51813;40.666;16.602;2023-12-20T03:38:02;15.90;54.20
65231;DHT22;51813;40.666;16.602;2023-12-20T03:40:28;15.90;54.20
65231;DHT22;51813;40.666;16.602;2023-12-20T03:42:53;15.90;54.30
65231;DHT22;51813;40.666;16.602;2023-12-20T03:45:19;15.80;54.10
65231;DHT22;51813;40.666;16.602;2023-12-20T03:47:45;15.80;54.30
65231;DHT22;51813;40.666;16.602;2023-12-20T03:50:10;15.70;54.50
65231;DHT22;51813;40.666;16.602;2023-12-20T03:52:36;15.70;54.50
65231;DHT22;51813;40.666;16.602;2023-12-20T03:55:02;15.70;54.70
65231;DHT22;51813;40.666;16.602;2023-12-20T03:57:27;15.70;54.50
65231;DHT22;51813;40.666;16.602;2023-12-20T03:59:53;15.80;54.60
65231;DHT22;51813;40.666;16.602;2023-12-20T04:02:19;15.80;54.40
65231;DHT22;51813;40.666;16.602;2023-12-20T04:04:45;15.80;54.30
65231;DHT22;51813;40.666;16.602;2023-12-20T04:07:10;15.80;54.40
65231;DHT22;51813;40.666;16.602;2023-12-20T04:09:36;15.80;54.40
65231;DHT22;51813;40.666;16.602;2023-12-20T04:12:01;15.80;54.60
65231;DHT22;51813;40.666;16.602;2023-12-20T04:14:27;15.90;54.70
65231;DHT22;51813;40.666;16.602;2023-12-20T04:16:54;15.80;54.50
65231;DHT22;51813;40.666;16.602;2023-12-20T04:19:19;15.80;54.60
65231;DHT22;51813;40.666;16.602;2023-12-20T04:21:45;15.80;54.60
65231;DHT22;51813;40.666;16.602;2023-12-20T04:24:10;15.80;54.70
65231;DHT22;51813;40.666;16.602;2023-12-20T04:26:36;15.80;54.70
65231;DHT22;51813;40.666;16.602;2023-12-20T04:29:02;15.80;54.80
65231;DHT22;51813;40.666;16.602;2023-12-20T04:31:27;15.80;54.80
65231;DHT22;51813;40.666;16.602;2023-12-20T04:33:53;15.80;54.80
65231;DHT22;51813;40.666;16.602;2023-12-20T04:36:19;15.80;54.90
65231;DHT22;51813;40.666;16.602;2023-12-20T04:38:45;15.80;54.90
65231;DHT22;51813;40.666;16.602;2023-12-20T04:41:10;15.80;54.90
65231;DHT22;51813;40.666;16.602;2023-12-20T04:43:36;15.80;54.90
65231;DHT22;51813;40.666;16.602;2023-12-20T04:46:03;15.80;54.90
65231;DHT22;51813;40.666;16.602;2023-12-20T04:48:28;15.80;54.90
65231;DHT22;51813;40.666;16.602;2023-12-20T04:50:54;15.80;55.20
65231;DHT22;51813;40.666;16.602;2023-12-20T04:53:19;15.80;55.20
65231;DHT22;51813;40.666;16.602;2023-12-20T04:55:45;15.80;55.10
65231;DHT22;51813;40.666;16.602;2023-12-20T04:58:11;15.80;55.10
65231;DHT22;51813;40.666;16.602;2023-12-20T05:00:36;15.90;55.10
65231;DHT22;51813;40.666;16.602;2023-12-20T05:03:02;15.80;55.10
65231;DHT22;51813;40.666;16.602;2023-12-20T05:05:28;15.80;55.20
65231;DHT22;51813;40.666;16.602;2023-12-20T05:07:54;15.80;55.30
65231;DHT22;51813;40.666;16.602;2023-12-20T05:10:19;15.80;55.30
65231;DHT22;51813;40.666;16.602;2023-12-20T05:12:45;15.80;55.30
65231;DHT22;51813;40.666;16.602;2023-12-20T05:15:10;15.80;55.40
65231;DHT22;51813;40.666;16.602;2023-12-20T05:17:36;15.80;55.40
65231;DHT22;51813;40.666;16.602;2023-12-20T05:20:02;15.80;55.40
65231;DHT22;51813;40.666;16.602;2023-12-20T05:22:28;15.80;55.40
65231;DHT22;51813;40.666;16.602;2023-12-20T05:24:54;15.80;55.40
65231;DHT22;51813;40.666;16.602;2023-12-20T05:27:19;15.80;55.40
65231;DHT22;51813;40.666;16.602;2023-12-20T05:29:45;15.80;55.30
65231;DHT22;51813;40.666;16.602;2023-12-20T05:32:11;15.80;55.60
65231;DHT22;51813;40.666;16.602;2023-12-20T05:34:36;15.80;55.40
65231;DHT22;51813;40.666;16.602;2023-12-20T05:37:03;15.80;55.40
65231;DHT22;51813;40.666;16.602;2023-12-20T05:39:29;15.80;55.50
65231;DHT22;51813;40.666;16.602;2023-12-20T05:41:56;15.80;55.60
65231;DHT22;51813;40.666;16.602;2023-12-20T05:44:22;15.80;55.60
65231;DHT22;51813;40.666;16.602;2023-12-20T05:46:47;15.80;55.70
65231;DHT22;51813;40.666;16.602;2023-12-20T05:49:13;15.80;55.60
65231;DHT22;51813;40.666;16.602;2023-12-20T05:51:39;15.80;55.70
65231;DHT22;51813;40.666;16.602;2023-12-20T05:54:05;15.80;55.60
65231;DHT22;51813;40.666;16.602;2023-12-20T05:56:30;15.80;55.60
65231;DHT22;51813;40.666;16.602;2023-12-20T05:58:56;15.80;55.70
65231;DHT22;51813;40.666;16.602;2023-12-20T06:01:22;15.80;55.70
65231;DHT22;51813;40.666;16.602;2023-12-20T06:03:47;15.80;55.60
65231;DHT22;51813;40.666;16.602;2023-12-20T06:06:13;15.80;55.60
65231;DHT22;51813;40.666;16.602;2023-12-20T06:08:39;15.80;55.70
65231;DHT22;51813;40.666;16.602;2023-12-20T06:11:05;15.80;55.80
65231;DHT22;51813;40.666;16.602;2023-12-20T06:13:33;15.80;55.80
65231;DHT22;51813;40.666;16.602;2023-12-20T06:15:58;15.80;55.60
65231;DHT22;51813;40.666;16.602;2023-12-20T06:18:24;15.80;55.70
65231;DHT22;51813;40.666;16.602;2023-12-20T06:20:50;15.80;55.80
65231;DHT22;51813;40.666;16.602;2023-12-20T06:23:16;15.80;55.80
65231;DHT22;51813;40.666;16.602;2023-12-20T06:25:41;15.80;55.80
65231;DHT22;51813;40.666;16.602;2023-12-20T06:28:07;15.70;55.80
65231;DHT22;51813;40.666;16.602;2023-12-20T06:30:35;15.80;55.90
65231;DHT22;51813;40.666;16.602;2023-12-20T06:33:01;15.70;55.90
65231;DHT22;51813;40.666;16.602;2023-12-20T06:35:27;15.80;55.90
65231;DHT22;51813;40.666;16.602;2023-12-20T06:37:52;15.70;55.80
65231;DHT22;51813;40.666;16.602;2023-12-20T06:40:18;15.70;55.90
65231;DHT22;51813;40.666;16.602;2023-12-20T06:42:44;15.70;55.90
65231;DHT22;51813;40.666;16.602;2023-12-20T06:45:10;15.80;55.90
65231;DHT22;51813;40.666;16.602;2023-12-20T06:47:35;15.80;55.80
65231;DHT22;51813;40.666;16.602;2023-12-20T06:50:01;15.80;55.90
65231;DHT22;51813;40.666;16.602;2023-12-20T06:52:27;15.80;56.70
65231;DHT22;51813;40.666;16.602;2023-12-20T06:54:53;15.80;55.90
65231;DHT22;51813;40.666;16.602;2023-12-20T06:57:18;15.80;55.80
65231;DHT22;51813;40.666;16.602;2023-12-20T06:59:45;15.80;55.90
65231;DHT22;51813;40.666;16.602;2023-12-20T07:02:11;15.80;55.80
65231;DHT22;51813;40.666;16.602;2023-12-20T07:04:40;15.70;55.90
65231;DHT22;51813;40.666;16.602;2023-12-20T07:07:06;15.80;55.80
65231;DHT22;51813;40.666;16.602;2023-12-20T07:09:32;15.70;55.80
65231;DHT22;51813;40.666;16.602;2023-12-20T07:11:59;15.70;55.90
65231;DHT22;51813;40.666;16.602;2023-12-20T07:14:25;15.70;55.90
65231;DHT22;51813;40.666;16.602;2023-12-20T07:16:50;15.80;55.90
65231;DHT22;51813;40.666;16.602;2023-12-20T07:19:16;15.70;55.90
65231;DHT22;51813;40.666;16.602;2023-12-20T07:21:42;15.70;55.90
65231;DHT22;51813;40.666;16.602;2023-12-20T07:24:07;15.70;56.00
65231;DHT22;51813;40.666;16.602;2023-12-20T07:26:33;15.80;55.90
65231;DHT22;51813;40.666;16.602;2023-12-20T07:28:59;15.80;55.90
65231;DHT22;51813;40.666;16.602;2023-12-20T07:31:25;15.80;56.10
65231;DHT22;51813;40.666;16.602;2023-12-20T07:33:50;15.80;56.10
65231;DHT22;51813;40.666;16.602;2023-12-20T07:36:16;15.80;55.90
65231;DHT22;51813;40.666;16.602;2023-12-20T07:38:42;15.80;55.90
65231;DHT22;51813;40.666;16.602;2023-12-20T07:41:10;15.80;56.00
65231;DHT22;51813;40.666;16.602;2023-12-20T07:43:36;15.70;56.30
65231;DHT22;51813;40.666;16.602;2023-12-20T07:46:08;15.70;56.00
65231;DHT22;51813;40.666;16.602;2023-12-20T07:48:37;15.70;55.90
65231;DHT22;51813;40.666;16.602;2023-12-20T07:51:04;15.70;56.00
65231;DHT22;51813;40.666;16.602;2023-12-20T07:53:29;15.80;55.90
65231;DHT22;51813;40.666;16.602;2023-12-20T07:55:55;15.80;55.90
65231;DHT22;51813;40.666;16.602;2023-12-20T07:58:21;15.80;55.90
65231;DHT22;51813;40.666;16.602;2023-12-20T08:00:47;15.80;56.00
65231;DHT22;51813;40.666;16.602;2023-12-20T08:03:13;15.70;56.00
65231;DHT22;51813;40.666;16.602;2023-12-20T08:05:39;15.70;56.00
65231;DHT22;51813;40.666;16.602;2023-12-20T08:08:08;15.80;56.00
65231;DHT22;51813;40.666;16.602;2023-12-20T08:10:33;15.80;56.30
65231;DHT22;51813;40.666;16.602;2023-12-20T08:12:59;15.80;56.30
65231;DHT22;51813;40.666;16.602;2023-12-20T08:15:24;15.80;56.00
65231;DHT22;51813;40.666;16.602;2023-12-20T08:17:50;15.80;55.90
65231;DHT22;51813;40.666;16.602;2023-12-20T08:20:19;15.80;56.10
65231;DHT22;51813;40.666;16.602;2023-12-20T08:22:44;15.80;56.10
65231;DHT22;51813;40.666;16.602;2023-12-20T08:25:10;15.80;56.10
65231;DHT22;51813;40.666;16.602;2023-12-20T08:27:42;15.70;56.10
65231;DHT22;51813;40.666;16.602;2023-12-20T08:30:10;15.70;56.10
65231;DHT22;51813;40.666;16.602;2023-12-20T08:32:36;15.70;56.10
65231;DHT22;51813;40.666;16.602;2023-12-20T08:35:02;15.70;56.20
65231;DHT22;51813;40.666;16.602;2023-12-20T08:37:28;15.70;56.20
65231;DHT22;51813;40.666;16.602;2023-12-20T08:39:55;15.80;56.30
65231;DHT22;51813;40.666;16.602;2023-12-20T08:42:21;15.80;56.20
65231;DHT22;51813;40.666;16.602;2023-12-20T08:44:46;15.80;56.20
65231;DHT22;51813;40.666;16.602;2023-12-20T08:47:12;15.80;56.20
65231;DHT22;51813;40.666;16.602;2023-12-20T08:49:41;15.80;56.20
65231;DHT22;51813;40.666;16.602;2023-12-20T08:52:06;15.80;56.40
65231;DHT22;51813;40.666;16.602;2023-12-20T08:54:32;15.80;56.30
65231;DHT22;51813;40.666;16.602;2023-12-20T08:56:58;15.70;56.30
65231;DHT22;51813;40.666;16.602;2023-12-20T08:59:23;15.60;56.70
65231;DHT22;51813;40.666;16.602;2023-12-20T09:01:49;15.70;56.60
65231;DHT22;51813;40.666;16.602;2023-12-20T09:04:20;15.70;56.40
65231;DHT22;51813;40.666;16.602;2023-12-20T09:06:45;15.80;56.40
65231;DHT22;51813;40.666;16.602;2023-12-20T09:09:11;15.80;56.30
65231;DHT22;51813;40.666;16.602;2023-12-20T09:11:39;15.70;56.40
65231;DHT22;51813;40.666;16.602;2023-12-20T09:14:04;15.80;56.40
65231;DHT22;51813;40.666;16.602;2023-12-20T09:16:30;15.80;56.40
65231;DHT22;51813;40.666;16.602;2023-12-20T09:18:57;15.80;56.40
65231;DHT22;51813;40.666;16.602;2023-12-20T09:21:23;15.80;56.40
65231;DHT22;51813;40.666;16.602;2023-12-20T09:23:48;15.80;56.40
65231;DHT22;51813;40.666;16.602;2023-12-20T09:26:14;15.80;56.50
65231;DHT22;51813;40.666;16.602;2023-12-20T09:28:40;15.80;56.50
65231;DHT22;51813;40.666;16.602;2023-12-20T09:31:06;15.80;57.20
65231;DHT22;51813;40.666;16.602;2023-12-20T09:33:32;15.90;56.30
65231;DHT22;51813;40.666;16.602;2023-12-20T09:35:58;15.80;56.20
65231;DHT22;51813;40.666;16.602;2023-12-20T09:38:24;15.80;56.20
65231;DHT22;51813;40.666;16.602;2023-12-20T09:40:50;15.70;57.30
65231;DHT22;51813;40.666;16.602;2023-12-20T09:43:19;15.70;56.80
65231;DHT22;51813;40.666;16.602;2023-12-20T09:45:48;15.70;57.10
65231;DHT22;51813;40.666;16.602;2023-12-20T09:48:13;15.70;57.60
65231;DHT22;51813;40.666;16.602;2023-12-20T09:50:43;15.80;57.60
65231;DHT22;51813;40.666;16.602;2023-12-20T09:53:14;15.90;57.40
65231;DHT22;51813;40.666;16.602;2023-12-20T09:55:41;15.90;57.50
65231;DHT22;51813;40.666;16.602;2023-12-20T09:58:07;15.90;57.40
65231;DHT22;51813;40.666;16.602;2023-12-20T10:00:35;15.90;57.30
65231;DHT22;51813;40.666;16.602;2023-12-20T10:03:01;15.90;57.50
65231;DHT22;51813;40.666;16.602;2023-12-20T10:05:31;15.90;57.20
65231;DHT22;51813;40.666;16.602;2023-12-20T10:07:57;15.90;57.00
65231;DHT22;51813;40.666;16.602;2023-12-20T10:10:23;15.90;57.10
65231;DHT22;51813;40.666;16.602;2023-12-20T10:15:28;15.90;57.40
65231;DHT22;51813;40.666;16.602;2023-12-20T10:17:54;16.00;57.30
65231;DHT22;51813;40.666;16.602;2023-12-20T10:20:20;16.00;57.00
65231;DHT22;51813;40.666;16.602;2023-12-20T10:22:46;16.00;57.10
65231;DHT22;51813;40.666;16.602;2023-12-20T10:25:12;16.10;57.30
65231;DHT22;51813;40.666;16.602;2023-12-20T10:27:38;16.10;56.90
65231;DHT22;51813;40.666;16.602;2023-12-20T10:30:04;16.10;57.00
65231;DHT22;51813;40.666;16.602;2023-12-20T10:32:30;16.10;57.00
65231;DHT22;51813;40.666;16.602;2023-12-20T10:34:57;16.10;57.10
65231;DHT22;51813;40.666;16.602;2023-12-20T10:37:23;16.10;57.10
65231;DHT22;51813;40.666;16.602;2023-12-20T10:39:50;16.10;57.20
65231;DHT22;51813;40.666;16.602;2023-12-20T10:42:26;16.10;57.20
65231;DHT22;51813;40.666;16.602;2023-12-20T10:44:52;16.20;57.10
65231;DHT22;51813;40.666;16.602;2023-12-20T10:47:20;16.20;57.00
65231;DHT22;51813;40.666;16.602;2023-12-20T10:49:46;16.20;56.80
65231;DHT22;51813;40.666;16.602;2023-12-20T10:52:12;16.20;57.10
65231;DHT22;51813;40.666;16.602;2023-12-20T10:54:41;16.20;57.00
65231;DHT22;51813;40.666;16.602;2023-12-20T10:57:07;16.20;57.00
65231;DHT22;51813;40.666;16.602;2023-12-20T10:59:36;16.20;57.10
65231;DHT22;51813;40.666;16.602;2023-12-20T11:02:05;16.20;57.00
65231;DHT22;51813;40.666;16.602;2023-12-20T11:04:40;16.30;56.90
65231;DHT22;51813;40.666;16.602;2023-12-20T11:07:25;16.30;56.80
65231;DHT22;51813;40.666;16.602;2023-12-20T11:13:05;16.30;56.80
65231;DHT22;51813;40.666;16.602;2023-12-20T11:15:35;16.30;56.80
65231;DHT22;51813;40.666;16.602;2023-12-20T11:18:02;16.30;56.70
65231;DHT22;51813;40.666;16.602;2023-12-20T11:20:40;16.40;56.80
65231;DHT22;51813;40.666;16.602;2023-12-20T11:23:07;16.40;56.70
65231;DHT22;51813;40.666;16.602;2023-12-20T11:25:52;16.40;56.70
65231;DHT22;51813;40.666;16.602;2023-12-20T11:28:23;16.40;56.60
65231;DHT22;51813;40.666;16.602;2023-12-20T11:30:54;16.40;56.60
65231;DHT22;51813;40.666;16.602;2023-12-20T11:33:37;16.40;56.60
65231;DHT22;51813;40.666;16.602;2023-12-20T11:36:03;16.40;57.40
65231;DHT22;51813;40.666;16.602;2023-12-20T11:38:37;16.40;56.60
65231;DHT22;51813;40.666;16.602;2023-12-20T11:41:05;16.40;56.80
65231;DHT22;51813;40.666;16.602;2023-12-20T11:46:07;16.40;56.30
65231;DHT22;51813;40.666;16.602;2023-12-20T11:48:36;16.40;56.40
65231;DHT22;51813;40.666;16.602;2023-12-20T11:51:02;16.30;56.60
65231;DHT22;51813;40.666;16.602;2023-12-20T11:53:29;16.40;56.80
65231;DHT22;51813;40.666;16.602;2023-12-20T11:55:56;16.40;56.70
65231;DHT22;51813;40.666;16.602;2023-12-20T11:58:22;16.40;56.80
65231;DHT22;51813;40.666;16.602;2023-12-20T12:00:49;16.40;57.10
65231;DHT22;51813;40.666;16.602;2023-12-20T12:03:15;16.40;57.00
65231;DHT22;51813;40.666;16.602;2023-12-20T12:05:41;16.40;56.80
65231;DHT22;51813;40.666;16.602;2023-12-20T12:08:07;16.50;56.70
65231;DHT22;51813;40.666;16.602;2023-12-20T12:10:33;16.50;57.20
65231;DHT22;51813;40.666;16.602;2023-12-20T12:12:59;16.50;57.50
65231;DHT22;51813;40.666;16.602;2023-12-20T12:15:25;16.50;57.20
65231;DHT22;51813;40.666;16.602;2023-12-20T12:17:55;16.50;57.00
65231;DHT22;51813;40.666;16.602;2023-12-20T12:20:22;16.60;56.90
65231;DHT22;51813;40.666;16.602;2023-12-20T12:22:58;16.60;56.70
65231;DHT22;51813;40.666;16.602;2023-12-20T12:25:24;16.60;56.80
65231;DHT22;51813;40.666;16.602;2023-12-20T12:27:51;16.50;56.70
65231;DHT22;51813;40.666;16.602;2023-12-20T12:30:17;16.60;56.60
65231;DHT22;51813;40.666;16.602;2023-12-20T12:32:44;16.60;56.70
65231;DHT22;51813;40.666;16.602;2023-12-20T12:35:10;16.60;56.50
65231;DHT22;51813;40.666;16.602;2023-12-20T12:37:40;16.60;56.40
65231;DHT22;51813;40.666;16.602;2023-12-20T12:40:13;16.60;56.70
65231;DHT22;51813;40.666;16.602;2023-12-20T12:42:41;16.60;56.80
65231;DHT22;51813;40.666;16.602;2023-12-20T12:45:07;16.60;56.60
65231;DHT22;51813;40.666;16.602;2023-12-20T12:47:34;16.60;56.60
65231;DHT22;51813;40.666;16.602;2023-12-20T12:50:00;16.60;56.70
65231;DHT22;51813;40.666;16.602;2023-12-20T12:52:25;16.60;56.60
65231;DHT22;51813;40.666;16.602;2023-12-20T12:54:52;16.70;56.60
65231;DHT22;51813;40.666;16.602;2023-12-20T12:57:18;16.70;56.40
65231;DHT22;51813;40.666;16.602;2023-12-20T12:59:45;16.70;56.60
65231;DHT22;51813;40.666;16.602;2023-12-20T13:02:13;16.70;56.60
65231;DHT22;51813;40.666;16.602;2023-12-20T13:04:40;16.70;56.60
65231;DHT22;51813;40.666;16.602;2023-12-20T13:07:06;16.70;56.60
65231;DHT22;51813;40.666;16.602;2023-12-20T13:09:32;16.60;56.40
65231;DHT22;51813;40.666;16.602;2023-12-20T13:11:58;16.60;56.40
65231;DHT22;51813;40.666;16.602;2023-12-20T13:14:24;16.70;56.40
65231;DHT22;51813;40.666;16.602;2023-12-20T13:16:50;16.60;56.30
65231;DHT22;51813;40.666;16.602;2023-12-20T13:19:16;16.60;56.50
65231;DHT22;51813;40.666;16.602;2023-12-20T13:21:43;16.70;56.80
65231;DHT22;51813;40.666;16.602;2023-12-20T13:24:08;16.70;56.50
65231;DHT22;51813;40.666;16.602;2023-12-20T13:26:34;16.80;56.50
65231;DHT22;51813;40.666;16.602;2023-12-20T13:29:00;17.00;56.10
65231;DHT22;51813;40.666;16.602;2023-12-20T13:31:25;17.10;55.70
65231;DHT22;51813;40.666;16.602;2023-12-20T13:33:51;17.20;55.50
65231;DHT22;51813;40.666;16.602;2023-12-20T13:36:18;17.30;55.00
65231;DHT22;51813;40.666;16.602;2023-12-20T13:38:44;17.40;54.70
65231;DHT22;51813;40.666;16.602;2023-12-20T13:41:10;17.60;54.40
65231;DHT22;51813;40.666;16.602;2023-12-20T13:43:35;17.70;53.90
65231;DHT22;51813;40.666;16.602;2023-12-20T13:46:01;17.80;53.60
65231;DHT22;51813;40.666;16.602;2023-12-20T13:48:27;17.90;53.40
65231;DHT22;51813;40.666;16.602;2023-12-20T13:50:52;18.00;53.20
65231;DHT22;51813;40.666;16.602;2023-12-20T13:53:20;18.10;52.80
65231;DHT22;51813;40.666;16.602;2023-12-20T13:55:45;18.20;52.50
65231;DHT22;51813;40.666;16.602;2023-12-20T13:58:11;18.30;52.50
65231;DHT22;51813;40.666;16.602;2023-12-20T14:00:37;18.40;52.20
65231;DHT22;51813;40.666;16.602;2023-12-20T14:03:04;18.50;52.10
65231;DHT22;51813;40.666;16.602;2023-12-20T14:05:29;18.50;52.70
65231;DHT22;51813;40.666;16.602;2023-12-20T14:07:55;18.60;51.80
65231;DHT22;51813;40.666;16.602;2023-12-20T14:10:24;18.70;51.50
65231;DHT22;51813;40.666;16.602;2023-12-20T14:12:56;18.70;51.50
65231;DHT22;51813;40.666;16.602;2023-12-20T14:15:21;18.80;51.40
65231;DHT22;51813;40.666;16.602;2023-12-20T14:17:50;18.80;51.20
65231;DHT22;51813;40.666;16.602;2023-12-20T14:20:16;18.80;51.20
65231;DHT22;51813;40.666;16.602;2023-12-20T14:22:43;18.90;50.90
65231;DHT22;51813;40.666;16.602;2023-12-20T14:25:12;19.00;50.90
65231;DHT22;51813;40.666;16.602;2023-12-20T14:27:41;18.90;50.90
65231;DHT22;51813;40.666;16.602;2023-12-20T14:30:09;18.90;50.90
65231;DHT22;51813;40.666;16.602;2023-12-20T14:32:35;19.00;50.80
65231;DHT22;51813;40.666;16.602;2023-12-20T14:35:05;19.00;50.90
65231;DHT22;51813;40.666;16.602;2023-12-20T14:37:31;19.10;50.60
65231;DHT22;51813;40.666;16.602;2023-12-20T14:39:57;19.20;50.30
65231;DHT22;51813;40.666;16.602;2023-12-20T14:42:23;19.20;50.50
65231;DHT22;51813;40.666;16.602;2023-12-20T14:44:49;19.10;50.60
65231;DHT22;51813;40.666;16.602;2023-12-20T14:47:14;19.00;50.80
65231;DHT22;51813;40.666;16.602;2023-12-20T14:49:41;19.10;50.60
65231;DHT22;51813;40.666;16.602;2023-12-20T14:52:08;19.10;50.70
65231;DHT22;51813;40.666;16.602;2023-12-20T14:54:36;19.10;50.70
65231;DHT22;51813;40.666;16.602;2023-12-20T14:57:02;19.10;50.70
65231;DHT22;51813;40.666;16.602;2023-12-20T14:59:28;19.10;50.50
65231;DHT22;51813;40.666;16.602;2023-12-20T15:01:54;19.10;50.80
65231;DHT22;51813;40.666;16.602;2023-12-20T15:04:20;19.10;50.70
65231;DHT22;51813;40.666;16.602;2023-12-20T15:06:52;19.10;50.60
65231;DHT22;51813;40.666;16.602;2023-12-20T15:09:18;19.20;50.60
65231;DHT22;51813;40.666;16.602;2023-12-20T15:11:43;19.20;50.50
65231;DHT22;51813;40.666;16.602;2023-12-20T15:14:09;19.30;50.30
65231;DHT22;51813;40.666;16.602;2023-12-20T15:16:35;19.30;50.00
65231;DHT22;51813;40.666;16.602;2023-12-20T15:19:01;19.30;50.10